Time;durP1;ratioP1;P1;durP2;ratioP2;P2;SDS_P1;SDS_P2;PMS_P1;PMS_P2;Temp;Humidity;BMP_temperature;BMP_pressure;BME280_temperature;BME280_humidity;BME280_pressure;Samples;Min_cycle;Max_cycle;Signal;HPM_P1;HPM_P2
2023/10/06 04:31:38;;;;;;;0.10;0.10;;;11.50;75.80;;;;;;5275341;23;20136;-76
2023/10/06 04:34:04;;;;;;;0.08;0.08;;;11.50;75.60;;;;;;4886148;29;20060;-75
2023/10/06 04:36:31;;;;;;;0.10;0.10;;;11.50;75.90;;;;;;4889677;29;20111;-76
2023/10/06 04:38:57;;;;;;;0.10;0.10;;;11.50;75.70;;;;;;4889785;29;20029;-76
2023/10/06 04:41:22;;;;;;;0.10;0.10;;;11.40;76.10;;;;;;4877845;29;20519;-76
2023/10/06 04:43:48;;;;;;;0.10;0.10;;;11.30;76.20;;;;;;4882154;29;20029;-76
2023/10/06 04:46:14;;;;;;;0.00;0.00;;;11.30;76.30;;;;;;4882178;29;20040;-77
2023/10/06 04:48:40;;;;;;;0.00;0.00;;;11.30;76.70;;;;;;4884750;29;20031;-77
2023/10/06 04:51:06;;;;;;;0.00;0.00;;;11.40;76.90;;;;;;4893052;29;20084;-76
2023/10/06 04:53:35;;;;;;;0.10;0.10;;;11.40;77.00;;;;;;4864842;29;20543;-75
2023/10/06 04:56:05;;;;;;;0.10;0.10;;;11.50;76.90;;;;;;4896192;29;20040;-74
2023/10/06 04:58:31;;;;;;;0.00;0.00;;;11.50;76.80;;;;;;4899505;29;20065;-78
2023/10/06 05:01:00;;;;;;;0.10;0.10;;;11.50;77.10;;;;;;4896124;29;20021;-76
2023/10/06 05:03:42;;;;;;;0.00;0.00;;;11.50;76.90;;;;;;4879397;29;20399;-77
2023/10/06 05:06:09;;;;;;;0.10;0.10;;;11.50;77.30;;;;;;4877141;29;20044;-76
2023/10/06 05:08:35;;;;;;;0.10;0.10;;;11.50;77.20;;;;;;4887539;29;20068;-75
2023/10/06 05:11:02;;;;;;;0.10;0.10;;;11.50;77.10;;;;;;4887422;29;20051;-75
2023/10/06 05:13:28;;;;;;;0.10;0.10;;;11.40;76.90;;;;;;4888872;29;20035;-79
2023/10/06 05:15:55;;;;;;;0.10;0.10;;;11.40;76.80;;;;;;4883162;29;20108;-79
2023/10/06 05:18:20;;;;;;;0.00;0.00;;;11.40;76.90;;;;;;4885598;29;20559;-80
2023/10/06 05:20:46;;;;;;;0.10;0.10;;;11.30;77.00;;;;;;4885232;29;20087;-78
2023/10/06 05:23:14;;;;;;;0.10;0.10;;;11.30;77.30;;;;;;4875670;29;20384;-78
2023/10/06 05:25:46;;;;;;;0.10;0.10;;;11.30;77.30;;;;;;4900911;29;20858;-78
2023/10/06 05:28:16;;;;;;;0.10;0.10;;;11.30;77.30;;;;;;4900489;29;20484;-78
2023/10/06 05:30:43;;;;;;;0.00;0.00;;;11.30;77.50;;;;;;4892545;29;20041;-78
2023/10/06 05:33:09;;;;;;;0.00;0.00;;;11.30;77.60;;;;;;4895778;29;20060;-78
2023/10/06 05:35:40;;;;;;;0.10;0.10;;;11.30;77.60;;;;;;4885975;29;20053;-78
2023/10/06 05:38:13;;;;;;;0.00;0.00;;;11.30;77.70;;;;;;4868518;29;20109;-78
2023/10/06 05:40:40;;;;;;;0.00;0.00;;;11.30;77.50;;;;;;4877263;29;20161;-78
2023/10/06 05:43:11;;;;;;;0.00;0.00;;;11.40;77.20;;;;;;4893595;29;20429;-78
2023/10/06 05:45:43;;;;;;;0.10;0.10;;;11.30;77.10;;;;;;4868346;29;20545;-78
2023/10/06 05:48:10;;;;;;;0.10;0.10;;;11.30;77.50;;;;;;4884469;29;20602;-81
2023/10/06 05:50:36;;;;;;;0.10;0.10;;;11.20;77.70;;;;;;4882084;29;20060;-79
2023/10/06 05:53:04;;;;;;;0.00;0.00;;;11.20;77.70;;;;;;4898438;29;20040;-79
2023/10/06 05:55:31;;;;;;;0.10;0.10;;;11.20;77.60;;;;;;4900856;29;20594;-79
2023/10/06 05:58:00;;;;;;;0.10;0.10;;;11.20;77.80;;;;;;4884523;29;20029;-79
2023/10/06 06:00:29;;;;;;;0.10;0.10;;;11.10;78.30;;;;;;4883393;29;20542;-79
2023/10/06 06:02:59;;;;;;;0.00;0.00;;;11.20;78.30;;;;;;4893237;29;20032;-79
2023/10/06 06:05:29;;;;;;;0.10;0.10;;;11.10;78.40;;;;;;4884365;29;20117;-79
2023/10/06 06:07:59;;;;;;;0.00;0.00;;;11.10;78.20;;;;;;4884705;29;20093;-79
2023/10/06 06:10:31;;;;;;;0.00;0.00;;;11.20;78.20;;;;;;4883975;29;20029;-79
2023/10/06 06:12:57;;;;;;;0.08;0.08;;;11.20;77.80;;;;;;4880017;29;20039;-79
2023/10/06 06:15:25;;;;;;;0.10;0.10;;;11.10;77.60;;;;;;4884749;29;20096;-80
2023/10/06 06:17:52;;;;;;;0.00;0.00;;;11.10;77.70;;;;;;4901665;29;20459;-79
2023/10/06 06:20:21;;;;;;;0.00;0.00;;;11.10;77.90;;;;;;4880609;29;20552;-79
2023/10/06 06:22:55;;;;;;;0.05;0.05;;;11.10;77.90;;;;;;4898667;29;20029;-79
2023/10/06 06:25:24;;;;;;;0.10;0.10;;;11.00;78.10;;;;;;4902887;29;20108;-79
2023/10/06 06:27:50;;;;;;;0.10;0.10;;;11.00;78.10;;;;;;4896589;29;20088;-79
2023/10/06 06:30:19;;;;;;;0.05;0.05;;;11.00;77.80;;;;;;4889718;29;20758;-79
2023/10/06 06:32:50;;;;;;;0.10;0.10;;;10.90;77.90;;;;;;4902726;29;20044;-79
2023/10/06 06:35:19;;;;;;;0.05;0.05;;;10.80;78.40;;;;;;4902913;29;20031;-79
2023/10/06 06:37:52;;;;;;;0.10;0.10;;;10.90;78.40;;;;;;4892926;29;20040;-80
2023/10/06 06:40:21;;;;;;;0.10;0.10;;;10.90;78.30;;;;;;4890379;29;20024;-79
2023/10/06 06:42:53;;;;;;;0.05;0.05;;;10.90;78.30;;;;;;4885866;29;20131;-79
2023/10/06 06:45:19;;;;;;;0.00;0.00;;;10.90;78.10;;;;;;4897900;29;20451;-79
2023/10/06 06:47:46;;;;;;;0.05;0.05;;;11.00;77.80;;;;;;4884050;29;20060;-79
2023/10/06 06:50:17;;;;;;;0.10;0.10;;;11.00;77.90;;;;;;4883997;29;20037;-79
2023/10/06 06:52:43;;;;;;;0.00;0.00;;;10.90;77.90;;;;;;4867214;29;20450;-79
2023/10/06 06:55:13;;;;;;;0.10;0.10;;;10.90;78.20;;;;;;4883836;29;20104;-79
2023/10/06 06:57:49;;;;;;;0.10;0.10;;;10.90;78.50;;;;;;4884164;29;20057;-79
2023/10/06 07:00:21;;;;;;;0.00;0.00;;;11.00;78.50;;;;;;4883669;29;20452;-79
2023/10/06 07:02:51;;;;;;;0.10;0.10;;;11.00;78.20;;;;;;4893348;29;20056;-79
2023/10/06 07:05:19;;;;;;;0.10;0.10;;;11.00;78.70;;;;;;4885404;29;20036;-79
2023/10/06 07:07:46;;;;;;;0.00;0.00;;;11.10;78.90;;;;;;4886764;29;20088;-79
2023/10/06 07:10:14;;;;;;;0.10;0.10;;;11.20;78.80;;;;;;4883720;29;20029;-79
2023/10/06 07:12:42;;;;;;;0.10;0.10;;;11.40;79.10;;;;;;4867239;29;20120;-79
2023/10/06 07:15:14;;;;;;;0.00;0.00;;;11.70;79.00;;;;;;4883777;29;20029;-79
2023/10/06 07:17:47;;;;;;;0.10;0.10;;;12.60;77.40;;;;;;4883245;29;20045;-79
2023/10/06 07:20:17;;;;;;;0.10;0.10;;;13.20;75.30;;;;;;4866581;29;20049;-79
2023/10/06 07:22:47;;;;;;;0.20;0.20;;;13.60;74.20;;;;;;4889338;29;20115;-79
2023/10/06 07:25:16;;;;;;;0.20;0.20;;;14.00;73.20;;;;;;4883312;29;20060;-79
2023/10/06 07:27:46;;;;;;;0.30;0.28;;;15.00;70.70;;;;;;4881918;29;20037;-79
2023/10/06 07:30:14;;;;;;;0.20;0.20;;;16.60;66.80;;;;;;4883155;29;20148;-79
2023/10/06 07:32:44;;;;;;;0.20;0.20;;;18.00;62.40;;;;;;4891321;29;20114;-79
2023/10/06 07:35:14;;;;;;;0.30;0.30;;;18.70;59.70;;;;;;4897550;29;20457;-79
2023/10/06 07:37:45;;;;;;;0.30;0.30;;;19.30;57.40;;;;;;4883329;29;20393;-79
2023/10/06 07:40:14;;;;;;;0.00;0.00;;;19.70;55.50;;;;;;4887440;29;20044;-79
2023/10/06 07:42:44;;;;;;;0.10;0.10;;;19.80;55.10;;;;;;4901732;29;20044;-80
2023/10/06 07:45:11;;;;;;;0.00;0.00;;;19.10;55.60;;;;;;4901557;29;20036;-79
2023/10/06 07:47:39;;;;;;;0.00;0.00;;;18.50;57.20;;;;;;4901033;29;20021;-79
2023/10/06 07:50:06;;;;;;;0.00;0.00;;;18.00;58.70;;;;;;4881649;29;20048;-80
2023/10/06 07:52:36;;;;;;;0.00;0.00;;;17.50;59.80;;;;;;4883680;29;20025;-79
2023/10/06 07:55:06;;;;;;;0.00;0.00;;;16.40;62.50;;;;;;4882691;29;20032;-80
2023/10/06 07:57:33;;;;;;;0.10;0.10;;;15.60;64.80;;;;;;4865978;29;20083;-79
2023/10/06 07:59:59;;;;;;;0.10;0.10;;;15.10;67.10;;;;;;4882707;29;20041;-79
2023/10/06 08:02:29;;;;;;;0.10;0.10;;;14.70;68.50;;;;;;4890165;29;20032;-79
2023/10/06 08:04:55;;;;;;;0.10;0.10;;;14.50;69.60;;;;;;4901102;29;20523;-79
2023/10/06 08:07:26;;;;;;;0.00;0.00;;;14.30;70.20;;;;;;4901339;29;20033;-79
2023/10/06 08:10:03;;;;;;;0.05;0.05;;;14.20;70.80;;;;;;4881713;29;20040;-79
2023/10/06 08:12:29;;;;;;;0.10;0.10;;;14.20;71.40;;;;;;4883204;29;20496;-79
2023/10/06 08:14:55;;;;;;;0.00;0.00;;;14.00;71.70;;;;;;4882307;29;20037;-79
2023/10/06 08:17:21;;;;;;;0.00;0.00;;;14.00;72.60;;;;;;4865383;29;20389;-79
2023/10/06 08:19:47;;;;;;;0.10;0.10;;;13.90;72.70;;;;;;4884896;29;20029;-79
2023/10/06 08:22:14;;;;;;;0.00;0.00;;;13.90;73.20;;;;;;4882406;29;20041;-79
2023/10/06 08:24:40;;;;;;;0.10;0.10;;;14.00;73.20;;;;;;4882195;29;20029;-79
2023/10/06 08:27:07;;;;;;;0.00;0.00;;;14.00;73.40;;;;;;4881958;29;20043;-79
2023/10/06 08:29:33;;;;;;;0.00;0.00;;;14.00;73.40;;;;;;4882519;29;20086;-79
2023/10/06 08:31:59;;;;;;;0.10;0.10;;;14.10;73.10;;;;;;4885077;29;20049;-79
2023/10/06 08:34:27;;;;;;;0.10;0.10;;;14.00;73.40;;;;;;4883949;29;20028;-79
2023/10/06 08:36:53;;;;;;;0.08;0.08;;;14.10;73.40;;;;;;4886207;29;20499;-79
2023/10/06 08:39:20;;;;;;;0.10;0.10;;;14.20;73.70;;;;;;4882056;29;20041;-79
2023/10/06 08:41:51;;;;;;;0.10;0.10;;;14.20;73.60;;;;;;4899840;29;20040;-79
2023/10/06 08:44:19;;;;;;;0.00;0.00;;;14.30;73.30;;;;;;4884637;29;20025;-79
2023/10/06 08:46:47;;;;;;;0.10;0.10;;;14.40;73.40;;;;;;4881717;29;20039;-80
2023/10/06 08:49:19;;;;;;;0.00;0.00;;;14.50;73.50;;;;;;4882389;29;20375;-79
2023/10/06 08:51:49;;;;;;;0.10;0.10;;;14.50;72.90;;;;;;4887502;29;20039;-79
2023/10/06 08:54:16;;;;;;;0.10;0.10;;;14.60;73.10;;;;;;4900708;29;20444;-79
2023/10/06 08:56:43;;;;;;;0.00;0.00;;;14.70;73.00;;;;;;4900471;29;20028;-79
2023/10/06 08:59:10;;;;;;;0.10;0.08;;;14.70;73.20;;;;;;4894419;29;20013;-79
2023/10/06 09:01:37;;;;;;;0.10;0.10;;;14.80;73.00;;;;;;4882708;29;20067;-79
2023/10/06 09:04:03;;;;;;;0.00;0.00;;;14.80;73.60;;;;;;4881896;29;20485;-79
2023/10/06 09:06:29;;;;;;;0.10;0.10;;;14.90;72.70;;;;;;4881880;29;20071;-79
2023/10/06 09:08:55;;;;;;;0.08;0.08;;;15.00;73.20;;;;;;4881759;29;20568;-79
2023/10/06 09:11:40;;;;;;;0.10;0.10;;;15.10;72.90;;;;;;4882267;29;20041;-79
2023/10/06 09:14:07;;;;;;;0.10;0.10;;;15.10;73.90;;;;;;4881465;29;20033;-79
2023/10/06 09:16:54;;;;;;;0.10;0.10;;;15.20;73.50;;;;;;4880038;29;20396;-79
2023/10/06 09:19:20;;;;;;;0.10;0.10;;;15.20;72.60;;;;;;4881711;29;20029;-79
2023/10/06 09:22:02;;;;;;;0.10;0.10;;;15.30;72.60;;;;;;4888678;29;20032;-79
2023/10/06 09:24:29;;;;;;;0.05;0.05;;;15.40;71.80;;;;;;4894991;29;20023;-79
2023/10/06 09:26:56;;;;;;;0.10;0.10;;;15.50;71.90;;;;;;4864719;29;20094;-79
2023/10/06 09:29:32;;;;;;;0.10;0.10;;;15.60;71.80;;;;;;4882055;29;20033;-79
2023/10/06 09:32:00;;;;;;;0.10;0.10;;;15.70;72.00;;;;;;4884342;29;20104;-79
2023/10/06 09:34:27;;;;;;;0.03;0.03;;;15.70;71.60;;;;;;4882882;29;20036;-79
2023/10/06 09:36:53;;;;;;;0.00;0.00;;;15.80;71.30;;;;;;4900213;29;20103;-79
2023/10/06 09:39:33;;;;;;;0.05;0.05;;;15.80;72.60;;;;;;4900217;29;20063;-79
2023/10/06 09:42:01;;;;;;;0.10;0.10;;;15.90;72.40;;;;;;4881263;29;20524;-79
2023/10/06 09:44:27;;;;;;;0.10;0.10;;;16.00;71.30;;;;;;4881438;29;20422;-79
2023/10/06 09:46:53;;;;;;;0.03;0.03;;;16.10;71.80;;;;;;4864555;29;20037;-79
2023/10/06 09:49:20;;;;;;;0.00;0.00;;;16.10;71.30;;;;;;4881697;29;20120;-79
2023/10/06 09:51:46;;;;;;;0.10;0.10;;;16.20;70.20;;;;;;4881169;29;20021;-79
2023/10/06 09:54:12;;;;;;;0.00;0.00;;;16.30;70.00;;;;;;4883780;29;20021;-80
2023/10/06 09:56:41;;;;;;;0.10;0.10;;;16.30;70.40;;;;;;4867456;29;20404;-80
2023/10/06 09:59:12;;;;;;;0.08;0.08;;;16.40;71.00;;;;;;4900144;29;20043;-79
2023/10/06 10:01:42;;;;;;;0.00;0.00;;;16.50;70.80;;;;;;4899348;29;20052;-80
2023/10/06 10:04:11;;;;;;;0.00;0.00;;;16.60;71.40;;;;;;4888153;29;20040;-80
2023/10/06 10:06:44;;;;;;;0.10;0.10;;;16.70;71.10;;;;;;4884633;29;20021;-80
2023/10/06 10:09:16;;;;;;;0.10;0.03;;;16.80;71.30;;;;;;4884534;29;20047;-80
2023/10/06 10:11:56;;;;;;;0.07;0.07;;;16.80;70.40;;;;;;4883308;29;20064;-80
2023/10/06 10:14:30;;;;;;;0.03;0.03;;;16.90;71.20;;;;;;4868166;29;20798;-80
2023/10/06 10:17:13;;;;;;;0.00;0.00;;;17.10;69.40;;;;;;4892721;29;20028;-80
2023/10/06 10:19:43;;;;;;;0.00;0.00;;;17.20;69.40;;;;;;4897617;29;20039;-80
2023/10/06 10:22:13;;;;;;;0.10;0.10;;;17.20;69.20;;;;;;4885696;29;20043;-79
2023/10/06 10:24:39;;;;;;;0.10;0.10;;;17.30;68.70;;;;;;4884640;29;20021;-79
2023/10/06 10:27:16;;;;;;;0.00;0.00;;;17.40;67.20;;;;;;4884244;29;20063;-79
2023/10/06 10:29:42;;;;;;;0.00;0.00;;;17.50;66.60;;;;;;4884105;29;20025;-79
2023/10/06 10:32:22;;;;;;;0.10;0.10;;;17.60;66.00;;;;;;4884067;29;20117;-79
2023/10/06 10:35:20;;;;;;;0.00;0.00;;;17.70;65.60;;;;;;4884343;29;20052;-79
2023/10/06 10:38:01;;;;;;;0.00;0.00;;;17.80;64.80;;;;;;4852030;29;20037;-80
2023/10/06 10:40:29;;;;;;;0.00;0.00;;;17.80;64.30;;;;;;4886101;29;20032;-79
2023/10/06 10:43:06;;;;;;;0.10;0.10;;;17.90;64.20;;;;;;4889102;29;20384;-79
2023/10/06 10:45:36;;;;;;;0.00;0.00;;;18.00;63.50;;;;;;4884108;29;20029;-79
2023/10/06 10:48:15;;;;;;;0.10;0.10;;;18.10;63.20;;;;;;4883768;29;20033;-80
2023/10/06 10:50:52;;;;;;;0.10;0.10;;;18.20;62.40;;;;;;4883922;29;20044;-80
2023/10/06 10:53:20;;;;;;;0.10;0.10;;;18.30;61.70;;;;;;4899862;29;20099;-80
2023/10/06 10:55:49;;;;;;;0.10;0.10;;;18.30;60.70;;;;;;4902871;29;20112;-79
2023/10/06 10:58:48;;;;;;;0.10;0.10;;;18.40;61.40;;;;;;4899277;29;20071;-79
2023/10/06 11:01:36;;;;;;;0.10;0.10;;;18.60;60.70;;;;;;4883679;29;20124;-79
2023/10/06 11:06:55;;;;;;;0.10;0.10;;;18.70;60.20;;;;;;4880810;29;20116;-80
2023/10/06 11:09:26;;;;;;;0.10;0.10;;;18.80;61.00;;;;;;4884204;29;20029;-79
2023/10/06 11:11:59;;;;;;;0.10;0.10;;;18.80;60.40;;;;;;4883515;29;20060;-79
2023/10/06 11:14:26;;;;;;;;;;;18.80;60.70;;;;;;4884197;29;20516;-80
2023/10/06 11:16:54;;;;;;;0.10;0.10;;;18.90;60.70;;;;;;4883185;29;19912;-79
2023/10/06 11:19:19;;;;;;;0.10;0.10;;;19.00;60.10;;;;;;4883612;29;20029;-79
2023/10/06 11:21:48;;;;;;;0.00;0.00;;;19.00;59.50;;;;;;4887038;29;20061;-79
2023/10/06 11:24:28;;;;;;;0.10;0.10;;;19.10;58.90;;;;;;4883570;29;20128;-80
2023/10/06 11:26:54;;;;;;;0.05;0.05;;;19.10;58.40;;;;;;4883283;29;20060;-79
2023/10/06 11:29:32;;;;;;;0.00;0.00;;;19.20;59.00;;;;;;4883362;29;20033;-79
2023/10/06 11:32:01;;;;;;;0.05;0.05;;;19.30;58.50;;;;;;4878837;29;20807;-79
2023/10/06 11:34:28;;;;;;;0.00;0.00;;;19.30;58.90;;;;;;4890338;29;20036;-79
2023/10/06 11:36:56;;;;;;;0.00;0.00;;;19.30;58.10;;;;;;4883130;29;20032;-78
2023/10/06 11:39:29;;;;;;;0.10;0.10;;;19.40;57.90;;;;;;4883214;29;20025;-78
2023/10/06 11:42:23;;;;;;;0.00;0.00;;;19.40;56.90;;;;;;4883079;29;20029;-78
2023/10/06 11:44:49;;;;;;;0.00;0.00;;;19.50;55.00;;;;;;4881557;29;20041;-79
2023/10/06 11:47:14;;;;;;;0.10;0.10;;;19.50;56.90;;;;;;4881505;29;20119;-78
2023/10/06 11:49:57;;;;;;;0.10;0.10;;;19.60;56.30;;;;;;4883550;29;20039;-78
2023/10/06 11:52:23;;;;;;;0.10;0.10;;;19.60;56.60;;;;;;4884608;29;20421;-78
2023/10/06 11:54:49;;;;;;;0.08;0.08;;;19.60;55.00;;;;;;4881361;29;20025;-78
2023/10/06 11:57:15;;;;;;;0.00;0.00;;;19.70;55.10;;;;;;4882952;29;20045;-78
2023/10/06 11:59:51;;;;;;;0.00;0.00;;;19.70;55.10;;;;;;4882784;29;20037;-79
2023/10/06 12:02:17;;;;;;;0.05;0.05;;;19.80;55.10;;;;;;4888013;29;20037;-78
2023/10/06 12:04:44;;;;;;;0.00;0.00;;;19.80;54.70;;;;;;4897999;29;20033;-78
2023/10/06 12:07:23;;;;;;;0.10;0.10;;;19.80;54.90;;;;;;4890690;29;20040;-78
2023/10/06 12:09:49;;;;;;;0.00;0.00;;;19.80;54.50;;;;;;4882737;29;20020;-78
2023/10/06 12:12:19;;;;;;;0.00;0.00;;;19.80;54.30;;;;;;4884655;29;20088;-78
2023/10/06 12:14:45;;;;;;;0.10;0.10;;;19.90;54.30;;;;;;4901003;29;20016;-78
2023/10/06 12:17:15;;;;;;;0.00;0.00;;;20.00;55.50;;;;;;4900992;29;20039;-79
2023/10/06 12:19:44;;;;;;;0.05;0.05;;;20.10;54.20;;;;;;4888270;29;20039;-79
2023/10/06 12:22:10;;;;;;;0.00;0.00;;;20.10;54.20;;;;;;4892446;29;20043;-78
2023/10/06 12:24:35;;;;;;;0.10;0.10;;;20.30;53.70;;;;;;4900504;29;20115;-79
2023/10/06 12:27:01;;;;;;;0.00;0.00;;;20.20;52.50;;;;;;4900743;29;20083;-79
2023/10/06 12:29:29;;;;;;;0.10;0.10;;;20.20;52.00;;;;;;4888830;29;20029;-79
2023/10/06 12:31:56;;;;;;;0.00;0.00;;;20.20;52.70;;;;;;4884444;29;20049;-79
2023/10/06 12:34:23;;;;;;;0.00;0.00;;;20.30;53.50;;;;;;4884169;29;20028;-79
2023/10/06 12:36:48;;;;;;;0.10;0.10;;;20.30;54.00;;;;;;4892031;29;20041;-79
2023/10/06 12:39:30;;;;;;;0.10;0.10;;;20.40;54.50;;;;;;4882133;29;20093;-79
2023/10/06 12:41:57;;;;;;;0.10;0.10;;;20.40;54.00;;;;;;4881973;29;20029;-79
2023/10/06 12:44:27;;;;;;;0.08;0.08;;;20.50;53.40;;;;;;4882549;29;20055;-79
2023/10/06 12:46:56;;;;;;;0.08;0.08;;;20.50;52.10;;;;;;4881965;29;20033;-79
2023/10/06 12:49:24;;;;;;;0.10;0.10;;;20.60;51.30;;;;;;4881924;29;20037;-79
2023/10/06 12:51:50;;;;;;;0.10;0.10;;;20.70;52.20;;;;;;4882064;29;20442;-79
2023/10/06 12:54:15;;;;;;;0.00;0.00;;;20.70;52.00;;;;;;4877468;29;20032;-79
2023/10/06 12:56:46;;;;;;;0.10;0.10;;;20.80;52.20;;;;;;4900615;29;20111;-79
2023/10/06 12:59:12;;;;;;;0.10;0.10;;;20.70;51.20;;;;;;4897248;29;20025;-79
2023/10/06 13:01:37;;;;;;;0.10;0.10;;;20.70;50.70;;;;;;4882268;29;20043;-79
2023/10/06 13:04:03;;;;;;;0.10;0.10;;;20.80;51.50;;;;;;4883649;29;20480;-79
2023/10/06 13:06:32;;;;;;;0.10;0.10;;;20.80;50.30;;;;;;4900484;29;20039;-79
2023/10/06 13:09:03;;;;;;;0.00;0.00;;;20.80;50.40;;;;;;4884311;29;20028;-79
2023/10/06 13:11:30;;;;;;;0.05;0.05;;;20.80;51.00;;;;;;4881565;29;20029;-79
2023/10/06 13:13:55;;;;;;;0.10;0.10;;;20.90;51.60;;;;;;4881862;29;20401;-79
2023/10/06 13:16:21;;;;;;;0.10;0.10;;;21.00;51.50;;;;;;4881605;29;20029;-79
2023/10/06 13:18:48;;;;;;;0.00;0.00;;;20.90;51.30;;;;;;4881707;29;20492;-79
2023/10/06 13:21:13;;;;;;;0.05;0.05;;;20.90;51.00;;;;;;4884833;29;20025;-79
2023/10/06 13:23:39;;;;;;;0.03;0.03;;;20.90;51.30;;;;;;4883504;29;20032;-79
2023/10/06 13:26:11;;;;;;;0.00;0.00;;;21.00;51.80;;;;;;4895204;29;20048;-79
2023/10/06 13:28:38;;;;;;;0.00;0.00;;;21.00;52.10;;;;;;4881677;29;20029;-78
2023/10/06 13:31:04;;;;;;;0.15;0.10;;;21.00;51.80;;;;;;4881148;29;20041;-78
2023/10/06 13:33:31;;;;;;;0.10;0.10;;;21.10;52.90;;;;;;4878095;29;20017;-78
2023/10/06 13:35:57;;;;;;;0.05;0.05;;;21.20;52.20;;;;;;4865140;29;20026;-78
2023/10/06 13:38:25;;;;;;;0.00;0.00;;;21.20;52.00;;;;;;4885300;29;20036;-78
2023/10/06 13:40:52;;;;;;;0.00;0.00;;;21.20;51.90;;;;;;4895597;29;20540;-78
2023/10/06 13:43:18;;;;;;;0.00;0.00;;;21.20;51.70;;;;;;4889595;29;20028;-78
2023/10/06 13:45:45;;;;;;;0.05;0.05;;;21.20;52.10;;;;;;4885119;29;20400;-78
2023/10/06 13:48:12;;;;;;;0.10;0.10;;;21.20;51.70;;;;;;4885190;29;20120;-78
2023/10/06 13:50:40;;;;;;;0.00;0.00;;;21.30;52.40;;;;;;4885090;29;20065;-78
2023/10/06 13:53:06;;;;;;;0.10;0.10;;;21.30;51.10;;;;;;4884867;29;20037;-78
2023/10/06 13:55:33;;;;;;;0.00;0.00;;;21.30;49.60;;;;;;4885463;29;20475;-79
2023/10/06 13:58:03;;;;;;;0.00;0.00;;;21.30;51.00;;;;;;4884971;29;20103;-78
2023/10/06 14:00:29;;;;;;;0.10;0.10;;;21.30;50.80;;;;;;4885542;29;20036;-78
2023/10/06 14:03:13;;;;;;;0.10;0.10;;;21.40;50.10;;;;;;4891205;29;20519;-78
2023/10/06 14:05:43;;;;;;;0.00;0.00;;;21.40;49.70;;;;;;4884776;29;20040;-79
2023/10/06 14:08:17;;;;;;;0.10;0.10;;;21.40;50.10;;;;;;4885618;29;20806;-79
2023/10/06 14:10:45;;;;;;;0.00;0.00;;;21.40;49.80;;;;;;4868957;29;20068;-79
2023/10/06 14:13:17;;;;;;;0.00;0.00;;;21.40;49.10;;;;;;4884791;29;20028;-79
2023/10/06 14:15:50;;;;;;;0.00;0.00;;;21.50;49.80;;;;;;4884549;29;20081;-79
2023/10/06 14:18:23;;;;;;;0.00;0.00;;;21.50;49.00;;;;;;4883218;29;20030;-79
2023/10/06 14:20:52;;;;;;;0.10;0.10;;;21.50;50.00;;;;;;4884644;29;20041;-79
2023/10/06 14:23:24;;;;;;;0.00;0.00;;;21.60;50.20;;;;;;4884619;29;20030;-79
2023/10/06 14:25:51;;;;;;;0.00;0.00;;;21.60;49.80;;;;;;4884806;29;20040;-79
2023/10/06 14:28:16;;;;;;;0.00;0.00;;;21.60;50.10;;;;;;4884367;29;20272;-79
2023/10/06 14:30:43;;;;;;;0.00;0.00;;;21.60;50.40;;;;;;4884302;29;20127;-79
2023/10/06 14:46:41;;;;;;;0.03;0.00;;;21.70;50.20;;;;;;4886617;29;20040;-79
2023/10/06 14:49:14;;;;;;;0.00;0.00;;;21.70;50.10;;;;;;4893308;29;20029;-78
2023/10/06 14:51:41;;;;;;;;;;;21.60;50.50;;;;;;4892686;29;20111;-77
2023/10/06 14:54:10;;;;;;;0.00;0.00;;;21.70;50.80;;;;;;4895537;29;19978;-77
2023/10/06 14:56:37;;;;;;;0.00;0.00;;;21.70;50.70;;;;;;4876472;29;20032;-76
2023/10/06 14:59:08;;;;;;;0.00;0.00;;;21.60;50.30;;;;;;4892322;29;20029;-76
2023/10/06 15:01:35;;;;;;;0.00;0.00;;;21.60;49.90;;;;;;4890956;29;20391;-77
2023/10/06 15:04:01;;;;;;;0.00;0.00;;;21.60;49.70;;;;;;4875139;29;20025;-77
2023/10/06 15:06:27;;;;;;;0.00;0.00;;;21.60;50.30;;;;;;4877342;29;20025;-76
2023/10/06 15:08:54;;;;;;;0.00;0.00;;;21.60;50.30;;;;;;4892869;29;20119;-77
2023/10/06 15:11:20;;;;;;;0.00;0.00;;;21.60;50.40;;;;;;4892171;29;20063;-76
2023/10/06 15:13:49;;;;;;;0.00;0.00;;;21.60;51.00;;;;;;4891973;29;20032;-76
2023/10/06 15:16:18;;;;;;;0.00;0.00;;;21.60;50.30;;;;;;4894075;29;20096;-76
2023/10/06 15:18:48;;;;;;;0.03;0.03;;;21.50;50.50;;;;;;4892377;29;20028;-76
2023/10/06 15:21:17;;;;;;;0.00;0.00;;;21.50;51.10;;;;;;4891176;29;20044;-76
2023/10/06 15:23:47;;;;;;;0.00;0.00;;;21.50;50.30;;;;;;4893618;29;20085;-79
2023/10/06 15:26:14;;;;;;;0.00;0.00;;;21.50;50.60;;;;;;4892232;29;20044;-76
2023/10/06 15:28:44;;;;;;;0.00;0.00;;;21.50;50.50;;;;;;4873598;29;20048;-76
2023/10/06 15:31:14;;;;;;;0.00;0.00;;;21.50;50.20;;;;;;4889687;29;20049;-75
2023/10/06 15:33:43;;;;;;;0.17;0.08;;;21.50;50.00;;;;;;4890819;29;20017;-75
2023/10/06 15:36:14;;;;;;;0.00;0.00;;;21.40;51.20;;;;;;4893534;29;20034;-77
2023/10/06 15:38:40;;;;;;;0.00;0.00;;;21.30;51.10;;;;;;4893082;29;20396;-76
2023/10/06 15:41:15;;;;;;;0.00;0.00;;;21.30;50.90;;;;;;4875325;29;20036;-76
2023/10/06 15:43:42;;;;;;;0.00;0.00;;;21.40;51.10;;;;;;4870160;29;20033;-75
2023/10/06 15:46:10;;;;;;;0.00;0.00;;;21.30;51.60;;;;;;4882609;29;20039;-75
2023/10/06 15:48:38;;;;;;;0.00;0.00;;;21.30;52.30;;;;;;4900058;29;20040;-75
2023/10/06 15:51:07;;;;;;;0.00;0.00;;;21.30;52.10;;;;;;4898709;29;20632;-75
2023/10/06 15:53:35;;;;;;;0.00;0.00;;;21.30;51.90;;;;;;4899640;29;20028;-75
2023/10/06 15:56:08;;;;;;;0.00;0.00;;;21.20;51.90;;;;;;4897733;29;20025;-81
2023/10/06 15:58:38;;;;;;;0.00;0.00;;;21.20;52.10;;;;;;4889761;29;20028;-76
2023/10/06 16:01:14;;;;;;;0.00;0.00;;;21.10;52.30;;;;;;4891888;29;20061;-76
2023/10/06 16:03:43;;;;;;;0.10;0.10;;;21.10;52.20;;;;;;4875920;29;20022;-76
2023/10/06 16:06:09;;;;;;;0.00;0.00;;;21.10;52.10;;;;;;4876174;29;20037;-76
2023/10/06 16:08:39;;;;;;;0.00;0.00;;;21.00;52.10;;;;;;4887438;29;20166;-76
2023/10/06 16:11:08;;;;;;;0.00;0.00;;;21.00;53.70;;;;;;4894352;29;20033;-74
2023/10/06 16:13:44;;;;;;;0.00;0.00;;;20.90;53.70;;;;;;4880795;29;20020;-75
2023/10/06 16:16:14;;;;;;;0.00;0.00;;;20.90;54.10;;;;;;4888869;29;20028;-76
2023/10/06 16:18:41;;;;;;;0.00;0.00;;;20.80;54.00;;;;;;4876055;29;20048;-75
2023/10/06 16:21:11;;;;;;;0.05;0.00;;;20.80;53.00;;;;;;4874005;29;20032;-77
2023/10/06 16:23:38;;;;;;;0.00;0.00;;;20.70;53.80;;;;;;4893632;29;20111;-75
2023/10/06 16:26:04;;;;;;;0.10;0.00;;;20.70;54.20;;;;;;4889108;29;20040;-75
2023/10/06 16:28:29;;;;;;;0.00;0.00;;;20.60;54.90;;;;;;4891698;29;20025;-77
2023/10/06 16:30:59;;;;;;;0.00;0.00;;;20.50;55.10;;;;;;4891382;29;20055;-75
2023/10/06 16:33:26;;;;;;;0.05;0.05;;;20.40;55.50;;;;;;4878303;29;20511;-75
2023/10/06 16:35:53;;;;;;;0.00;0.00;;;20.30;55.80;;;;;;4881050;29;20024;-75
2023/10/06 16:38:19;;;;;;;0.00;0.00;;;20.30;55.90;;;;;;4863671;29;20025;-75
2023/10/06 16:40:45;;;;;;;0.00;0.00;;;20.30;55.60;;;;;;4885262;29;20025;-76
2023/10/06 16:43:11;;;;;;;0.00;0.00;;;20.20;56.00;;;;;;4873863;29;20057;-75
2023/10/06 16:45:38;;;;;;;0.00;0.00;;;20.10;55.60;;;;;;4900167;29;20684;-76
2023/10/06 16:48:05;;;;;;;0.00;0.00;;;20.00;55.40;;;;;;4880099;29;20033;-76
2023/10/06 16:50:31;;;;;;;0.00;0.00;;;20.00;55.80;;;;;;4881732;29;20540;-74
2023/10/06 16:52:58;;;;;;;0.00;0.00;;;19.90;56.20;;;;;;4882120;29;20032;-80
2023/10/06 16:55:26;;;;;;;0.00;0.00;;;19.90;56.60;;;;;;4865272;29;20025;-77
2023/10/06 16:57:54;;;;;;;0.00;0.00;;;19.80;57.10;;;;;;4882178;29;20033;-78
2023/10/06 17:00:21;;;;;;;0.00;0.00;;;19.80;56.70;;;;;;4881590;29;20033;-77
2023/10/06 17:02:47;;;;;;;0.00;0.00;;;19.80;57.30;;;;;;4885078;29;20433;-78
2023/10/06 17:05:13;;;;;;;0.00;0.00;;;19.70;57.80;;;;;;4883101;29;20029;-76
2023/10/06 17:07:40;;;;;;;0.00;0.00;;;19.60;58.10;;;;;;4881525;29;20112;-77
2023/10/06 17:10:10;;;;;;;0.00;0.00;;;19.50;58.50;;;;;;4865188;29;20057;-77
2023/10/06 17:12:37;;;;;;;0.00;0.00;;;19.40;58.70;;;;;;4879293;29;20084;-78
2023/10/06 17:15:10;;;;;;;0.00;0.00;;;19.40;58.90;;;;;;4906702;29;20111;-77
2023/10/06 17:17:37;;;;;;;;;;;19.30;59.40;;;;;;4889570;29;20044;-76
2023/10/06 17:20:04;;;;;;;0.00;0.00;;;19.20;60.10;;;;;;4887975;29;19971;-78
2023/10/06 17:22:30;;;;;;;0.10;0.10;;;19.20;60.50;;;;;;4884326;29;20025;-77
2023/10/06 17:24:56;;;;;;;0.00;0.00;;;19.10;60.90;;;;;;4879715;29;20043;-76
2023/10/06 17:27:22;;;;;;;0.00;0.00;;;19.00;61.10;;;;;;4888121;29;20037;-77
2023/10/06 17:29:48;;;;;;;0.00;0.00;;;18.90;61.40;;;;;;4888212;29;20073;-76
2023/10/06 17:32:13;;;;;;;0.00;0.00;;;18.90;61.60;;;;;;4893050;29;20099;-75
2023/10/06 17:34:42;;;;;;;0.00;0.00;;;18.80;61.70;;;;;;4907047;29;20027;-77
2023/10/06 17:37:08;;;;;;;0.00;0.00;;;18.80;62.10;;;;;;4906280;29;20032;-77
2023/10/06 17:39:34;;;;;;;0.00;0.00;;;18.80;62.30;;;;;;4903641;29;20021;-76
2023/10/06 17:41:59;;;;;;;0.00;0.00;;;18.70;62.50;;;;;;4906529;29;20065;-77
2023/10/06 17:44:25;;;;;;;0.00;0.00;;;18.60;62.90;;;;;;4889922;29;20032;-77